createdAt,value
2018-08-17T00:00:26.699Z,12.50
2018-08-17T00:01:32.242Z,12.60
2018-08-17T00:02:37.775Z,13.40
2018-08-17T00:03:43.327Z,13.00
2018-08-17T00:04:48.862Z,12.90
2018-08-17T00:05:54.408Z,13.70
2018-08-17T00:06:59.949Z,12.00
2018-08-17T00:08:05.495Z,12.20
2018-08-17T00:09:11.032Z,12.40
2018-08-17T00:10:16.572Z,14.00
2018-08-17T00:11:22.115Z,12.60
2018-08-17T00:12:27.660Z,12.80
2018-08-17T00:13:33.194Z,12.40
2018-08-17T00:14:38.739Z,12.40
2018-08-17T00:15:44.286Z,14.10
2018-08-17T00:16:49.823Z,12.80
2018-08-17T00:17:55.374Z,12.50
2018-08-17T00:19:00.908Z,13.60
2018-08-17T00:20:06.453Z,12.50
2018-08-17T00:21:12.001Z,13.00
2018-08-17T00:22:17.539Z,14.10
2018-08-17T00:23:23.079Z,12.20
2018-08-17T00:24:28.615Z,12.40
2018-08-17T00:25:34.160Z,12.70
2018-08-17T00:26:39.703Z,12.80
2018-08-17T00:27:45.249Z,13.50
2018-08-17T00:28:50.782Z,13.50
2018-08-17T00:29:56.328Z,13.30
2018-08-17T00:31:01.872Z,13.50
2018-08-17T00:32:07.411Z,14.70
2018-08-17T00:33:12.958Z,13.60
2018-08-17T00:34:18.494Z,11.70
2018-08-17T00:35:24.038Z,12.10
2018-08-17T00:36:29.580Z,13.00
2018-08-17T00:37:35.125Z,12.40
2018-08-17T00:38:40.661Z,12.10
2018-08-17T00:39:46.202Z,11.60
2018-08-17T00:40:51.743Z,12.20
2018-08-17T00:41:57.292Z,12.40
2018-08-17T00:43:02.825Z,11.60
2018-08-17T00:44:08.374Z,12.30
2018-08-17T00:45:13.910Z,11.40
2018-08-17T00:46:19.453Z,13.10
2018-08-17T00:47:24.995Z,11.50
2018-08-17T00:48:30.535Z,11.70
2018-08-17T00:49:36.083Z,11.30
2018-08-17T00:50:41.620Z,12.00
2018-08-17T00:51:47.164Z,12.60
2018-08-17T00:52:52.707Z,11.70
2018-08-17T00:53:58.246Z,12.40
2018-08-17T00:55:03.792Z,11.50
2018-08-17T00:56:09.332Z,12.30
2018-08-17T00:57:14.870Z,12.50
2018-08-17T00:58:20.409Z,11.70
2018-08-17T00:59:25.969Z,12.70
2018-08-17T01:00:31.501Z,12.10
2018-08-17T01:01:37.040Z,12.40
2018-08-17T01:02:42.584Z,12.70
2018-08-17T01:03:48.125Z,12.40
2018-08-17T01:04:53.668Z,13.40
2018-08-17T01:05:59.204Z,12.40
2018-08-17T01:07:04.744Z,11.90
2018-08-17T01:08:10.292Z,11.90
2018-08-17T01:09:15.841Z,12.50
2018-08-17T01:10:21.369Z,11.90
2018-08-17T01:11:26.915Z,13.10
2018-08-17T01:12:32.457Z,12.70
2018-08-17T01:13:38.000Z,12.20
2018-08-17T01:14:43.535Z,12.00
2018-08-17T01:15:49.077Z,11.50
2018-08-17T01:16:54.621Z,12.60
2018-08-17T01:18:00.166Z,11.90
2018-08-17T01:19:05.711Z,12.50
2018-08-17T01:20:11.252Z,12.40
2018-08-17T01:21:16.791Z,11.50
2018-08-17T01:22:22.331Z,12.30
2018-08-17T01:23:27.871Z,11.70
2018-08-17T01:24:33.415Z,12.00
2018-08-17T01:25:38.958Z,12.80
2018-08-17T01:26:44.498Z,13.00
2018-08-17T01:27:50.034Z,11.70
2018-08-17T01:28:55.574Z,11.80
2018-08-17T01:30:01.121Z,12.20
2018-08-17T01:31:06.665Z,12.30
2018-08-17T01:32:12.261Z,12.40
2018-08-17T01:33:17.747Z,12.10
2018-08-17T01:34:23.282Z,13.50
2018-08-17T01:35:28.831Z,13.20
2018-08-17T01:36:34.368Z,11.80
2018-08-17T01:37:39.907Z,12.50
2018-08-17T01:38:45.452Z,12.30
2018-08-17T01:39:50.997Z,12.40
2018-08-17T01:40:56.537Z,11.80
2018-08-17T01:42:02.078Z,11.50
2018-08-17T01:43:07.621Z,11.60
2018-08-17T01:44:13.165Z,12.40
2018-08-17T01:45:18.699Z,11.90
2018-08-17T01:46:24.238Z,12.10
2018-08-17T01:47:29.780Z,11.60
2018-08-17T01:48:35.326Z,11.70
2018-08-17T01:49:40.869Z,11.40
2018-08-17T01:50:46.408Z,12.30
2018-08-17T01:51:51.948Z,10.90
2018-08-17T01:52:57.490Z,12.30
2018-08-17T01:54:03.031Z,11.40
2018-08-17T01:55:08.570Z,12.10
2018-08-17T01:56:14.114Z,11.50
2018-08-17T01:57:19.656Z,11.00
2018-08-17T01:58:25.193Z,11.40
2018-08-17T01:59:30.733Z,11.50
2018-08-17T02:00:36.288Z,12.20
2018-08-17T02:01:41.816Z,12.10
2018-08-17T02:02:47.365Z,11.60
2018-08-17T02:03:52.901Z,11.20
2018-08-17T02:04:58.441Z,11.10
2018-08-17T02:06:03.981Z,11.10
2018-08-17T02:07:09.523Z,10.60
2018-08-17T02:08:15.067Z,11.60
2018-08-17T02:09:20.613Z,11.60
2018-08-17T02:10:26.151Z,11.40
2018-08-17T02:11:31.699Z,10.70
2018-08-17T02:12:37.235Z,12.60
2018-08-17T02:13:42.778Z,12.50
2018-08-17T02:14:48.364Z,12.80
2018-08-17T02:15:53.854Z,12.80
2018-08-17T02:16:59.400Z,11.40
2018-08-17T02:18:04.940Z,11.80
2018-08-17T02:19:10.483Z,11.60
2018-08-17T02:20:16.016Z,11.50
2018-08-17T02:21:21.561Z,12.70
2018-08-17T02:22:27.109Z,11.00
2018-08-17T02:23:32.642Z,11.60
2018-08-17T02:24:38.191Z,10.30
2018-08-17T02:25:43.726Z,10.30
2018-08-17T02:26:49.268Z,10.20
2018-08-17T02:27:54.807Z,11.00
2018-08-17T02:29:00.352Z,9.50
2018-08-17T02:30:05.895Z,10.50
2018-08-17T02:31:11.433Z,11.50
2018-08-17T02:32:16.973Z,11.40
2018-08-17T02:33:22.512Z,11.20
2018-08-17T02:34:28.073Z,11.30
2018-08-17T02:35:33.602Z,10.90
2018-08-17T02:36:39.147Z,11.50
2018-08-17T02:37:44.680Z,9.90
2018-08-17T02:38:50.223Z,10.80
2018-08-17T02:39:55.762Z,11.10
2018-08-17T02:41:01.300Z,12.10
2018-08-17T02:42:06.841Z,11.30
2018-08-17T02:43:12.386Z,12.00
2018-08-17T02:44:17.932Z,11.90
2018-08-17T02:45:23.471Z,11.50
2018-08-17T02:46:29.009Z,12.10
2018-08-17T02:47:34.545Z,11.80
2018-08-17T02:48:40.088Z,12.50
2018-08-17T02:49:45.629Z,11.80
2018-08-17T02:50:51.172Z,12.40
2018-08-17T02:51:56.744Z,12.80
2018-08-17T02:53:02.258Z,12.50
2018-08-17T02:54:07.791Z,12.90
2018-08-17T02:55:13.337Z,11.70
2018-08-17T02:56:18.883Z,12.60
2018-08-17T02:57:24.418Z,11.70
2018-08-17T02:58:29.960Z,12.00
2018-08-17T02:59:35.656Z,12.10
2018-08-17T03:00:41.044Z,12.40
2018-08-17T03:01:46.581Z,12.70
2018-08-17T03:02:52.121Z,12.20
2018-08-17T03:03:57.664Z,11.50
2018-08-17T03:05:03.209Z,11.40
2018-08-17T03:06:08.743Z,11.70
2018-08-17T03:07:14.286Z,11.80
2018-08-17T03:08:19.831Z,11.00
2018-08-17T03:09:25.369Z,12.10
2018-08-17T03:10:30.913Z,12.30
2018-08-17T03:11:36.448Z,12.10
2018-08-17T03:12:41.993Z,11.40
2018-08-17T03:13:47.534Z,11.70
2018-08-17T03:14:53.076Z,12.20
2018-08-17T03:15:58.615Z,10.70
2018-08-17T03:17:04.158Z,11.50
2018-08-17T03:18:09.698Z,12.40
2018-08-17T03:19:15.238Z,12.40
2018-08-17T03:20:20.782Z,11.80
2018-08-17T03:21:26.318Z,12.00
2018-08-17T03:22:31.858Z,12.10
2018-08-17T03:23:37.405Z,12.60
2018-08-17T03:24:42.944Z,11.00
2018-08-17T03:25:48.484Z,11.30
2018-08-17T03:26:54.019Z,11.50
2018-08-17T03:27:59.564Z,11.70
2018-08-17T03:29:05.103Z,11.20
2018-08-17T03:30:10.646Z,12.40
2018-08-17T03:31:16.186Z,12.40
2018-08-17T03:32:21.737Z,12.20
2018-08-17T03:33:27.269Z,11.70
2018-08-17T03:34:32.806Z,11.80
2018-08-17T03:35:38.353Z,13.40
2018-08-17T03:36:43.893Z,12.30
2018-08-17T03:37:49.435Z,12.20
2018-08-17T03:38:54.972Z,11.70
2018-08-17T03:40:00.507Z,11.90
2018-08-17T03:41:06.052Z,12.20
2018-08-17T03:42:11.597Z,12.80
2018-08-17T03:43:17.139Z,12.80
2018-08-17T03:44:22.675Z,12.90
2018-08-17T03:45:28.220Z,12.30
2018-08-17T03:46:33.761Z,11.90
2018-08-17T03:47:39.301Z,12.40
2018-08-17T03:48:44.841Z,12.00
2018-08-17T03:49:50.378Z,11.50
2018-08-17T03:50:55.924Z,13.20
2018-08-17T03:52:01.461Z,12.40
2018-08-17T03:53:07.006Z,13.00
2018-08-17T03:54:12.545Z,12.90
2018-08-17T03:55:18.082Z,13.00
2018-08-17T03:56:23.620Z,12.30
2018-08-17T03:57:29.164Z,12.80
2018-08-17T03:58:34.707Z,12.60
2018-08-17T03:59:40.252Z,12.70
2018-08-17T04:00:45.786Z,12.20
2018-08-17T04:01:51.325Z,11.40
2018-08-17T04:02:56.865Z,11.70
2018-08-17T04:04:02.411Z,11.60
2018-08-17T04:05:07.954Z,12.30
2018-08-17T04:06:13.489Z,11.60
2018-08-17T04:07:19.034Z,11.50
2018-08-17T04:08:24.567Z,11.80
2018-08-17T04:09:30.112Z,12.10
2018-08-17T04:10:35.656Z,12.70
2018-08-17T04:11:41.197Z,12.00
2018-08-17T04:12:46.732Z,12.10
2018-08-17T04:13:52.278Z,12.00
2018-08-17T04:14:57.814Z,11.70
2018-08-17T04:16:03.360Z,12.70
2018-08-17T04:17:08.904Z,13.60
2018-08-17T04:18:14.440Z,12.00
2018-08-17T04:19:19.979Z,12.10
2018-08-17T04:20:25.521Z,11.60
2018-08-17T04:21:31.062Z,11.60
2018-08-17T04:22:36.601Z,11.80
2018-08-17T04:23:42.164Z,11.00
2018-08-17T04:24:47.691Z,11.40
2018-08-17T04:25:53.225Z,11.50
2018-08-17T04:26:58.767Z,11.00
2018-08-17T04:28:04.306Z,11.30
2018-08-17T04:29:09.849Z,11.10
2018-08-17T04:30:15.389Z,12.20
2018-08-17T04:31:20.933Z,11.50
2018-08-17T04:32:26.465Z,11.60
2018-08-17T04:33:32.021Z,10.30
2018-08-17T04:34:37.550Z,10.70
2018-08-17T04:35:43.089Z,11.40
2018-08-17T04:36:48.634Z,11.20
2018-08-17T04:37:54.167Z,12.50
2018-08-17T04:38:59.711Z,12.80
2018-08-17T04:40:05.247Z,12.40
2018-08-17T04:41:10.789Z,11.60
2018-08-17T04:42:16.332Z,12.20
2018-08-17T04:43:21.871Z,12.10
2018-08-17T04:44:27.413Z,12.70
2018-08-17T04:45:32.965Z,13.60
2018-08-17T04:46:38.491Z,14.50
2018-08-17T04:47:44.033Z,15.70
2018-08-17T04:48:49.576Z,15.30
2018-08-17T04:49:55.119Z,16.60
2018-08-17T04:51:00.657Z,15.80
2018-08-17T04:52:06.200Z,17.90
2018-08-17T04:53:11.738Z,15.80
2018-08-17T04:54:17.282Z,18.30
2018-08-17T04:55:22.824Z,17.60
2018-08-17T04:56:28.357Z,17.90
2018-08-17T04:57:33.906Z,15.90
2018-08-17T04:58:39.440Z,16.40
2018-08-17T04:59:44.988Z,16.20
2018-08-17T05:00:50.525Z,15.00
2018-08-17T05:01:56.064Z,15.00
2018-08-17T05:03:01.603Z,14.90
2018-08-17T05:04:07.155Z,14.00
2018-08-17T05:05:12.685Z,16.80
2018-08-17T05:06:18.229Z,15.50
2018-08-17T05:07:23.773Z,15.50
2018-08-17T05:08:29.306Z,15.50
2018-08-17T05:09:34.850Z,16.80
2018-08-17T05:10:40.395Z,18.40
2018-08-17T05:11:45.938Z,22.00
2018-08-17T05:12:51.477Z,24.70
2018-08-17T05:13:57.011Z,23.40
2018-08-17T05:15:02.561Z,24.20
2018-08-17T05:16:08.098Z,21.10
2018-08-17T05:17:13.636Z,18.10
2018-08-17T05:18:19.179Z,16.40
2018-08-17T05:19:24.716Z,16.60
2018-08-17T05:20:30.259Z,14.70
2018-08-17T05:21:35.850Z,13.70
2018-08-17T05:22:41.344Z,13.60
2018-08-17T05:23:46.888Z,15.50
2018-08-17T05:24:52.426Z,14.10
2018-08-17T05:25:57.969Z,14.10
2018-08-17T05:27:03.511Z,14.30
2018-08-17T05:28:09.054Z,14.60
2018-08-17T05:29:14.590Z,15.70
2018-08-17T05:30:20.129Z,15.90
2018-08-17T05:31:25.677Z,15.20
2018-08-17T05:32:31.213Z,13.00
2018-08-17T05:33:36.753Z,14.20
2018-08-17T05:34:42.293Z,13.10
2018-08-17T05:35:47.862Z,13.30
2018-08-17T05:36:53.378Z,13.70
2018-08-17T05:37:58.918Z,13.70
2018-08-17T05:39:04.461Z,14.50
2018-08-17T05:40:10.000Z,14.50
2018-08-17T05:41:15.549Z,16.60
2018-08-17T05:42:21.086Z,15.90
2018-08-17T05:43:26.628Z,17.10
2018-08-17T05:44:32.170Z,15.90
2018-08-17T05:45:37.715Z,15.60
2018-08-17T05:46:43.247Z,15.20
2018-08-17T05:47:48.794Z,13.60
2018-08-17T05:48:54.334Z,14.50
2018-08-17T05:49:59.881Z,14.90
2018-08-17T05:51:05.418Z,15.10
2018-08-17T05:52:10.958Z,14.60
2018-08-17T05:53:16.505Z,14.50
2018-08-17T05:54:22.040Z,14.20
2018-08-17T05:55:27.582Z,13.70
2018-08-17T05:56:33.147Z,14.00
2018-08-17T05:57:38.672Z,14.00
2018-08-17T05:58:44.209Z,13.10
2018-08-17T05:59:49.745Z,12.50
2018-08-17T06:00:55.302Z,14.30
2018-08-17T06:02:00.835Z,12.70
2018-08-17T06:03:06.379Z,13.60
2018-08-17T06:04:11.919Z,13.10
2018-08-17T06:05:17.498Z,11.80
2018-08-17T06:06:22.999Z,11.30
2018-08-17T06:07:28.545Z,12.00
2018-08-17T06:08:34.082Z,12.10
2018-08-17T06:09:39.628Z,11.00
2018-08-17T06:10:45.170Z,10.90
2018-08-17T06:11:50.712Z,10.90
2018-08-17T06:12:56.252Z,11.20
2018-08-17T06:14:01.796Z,10.60
2018-08-17T06:15:07.341Z,9.70
2018-08-17T06:16:12.875Z,9.70
2018-08-17T06:17:18.429Z,9.60
2018-08-17T06:18:23.965Z,9.20
2018-08-17T06:21:10.387Z,8.60
2018-08-17T06:22:15.917Z,8.00
2018-08-17T06:23:21.462Z,7.70
2018-08-17T06:24:26.998Z,8.30
2018-08-17T06:25:32.543Z,7.90
2018-08-17T06:26:38.094Z,8.80
2018-08-17T06:27:43.736Z,7.40
2018-08-17T06:28:49.171Z,7.70
2018-08-17T06:29:54.708Z,8.10
2018-08-17T06:31:00.250Z,8.50
2018-08-17T06:32:05.822Z,7.60
2018-08-17T06:33:11.334Z,7.50
2018-08-17T06:34:16.880Z,8.00
2018-08-17T06:35:22.417Z,6.70
2018-08-17T06:36:27.967Z,6.70
2018-08-17T06:37:33.512Z,7.40
2018-08-17T06:38:39.051Z,7.50
2018-08-17T06:39:44.591Z,7.30
2018-08-17T06:40:50.136Z,6.50
2018-08-17T06:41:55.676Z,6.70
2018-08-17T06:43:01.223Z,6.90
2018-08-17T06:44:06.767Z,6.90
2018-08-17T06:45:12.306Z,6.60
2018-08-17T06:46:17.851Z,5.70
2018-08-17T06:47:23.395Z,5.10
2018-08-17T06:48:28.933Z,4.70
2018-08-17T06:49:34.503Z,4.10
2018-08-17T06:50:40.069Z,5.60
2018-08-17T06:51:45.568Z,4.90
2018-08-17T06:52:51.103Z,4.80
2018-08-17T06:53:56.647Z,4.10
2018-08-17T06:55:02.195Z,4.30
2018-08-17T06:56:07.775Z,3.50
2018-08-17T06:57:15.306Z,3.90
2018-08-17T06:58:18.824Z,3.90
2018-08-17T06:59:24.359Z,3.50
2018-08-17T07:00:29.905Z,4.00
2018-08-17T07:01:35.450Z,4.40
2018-08-17T07:02:41.091Z,4.20
2018-08-17T07:03:46.539Z,3.80
2018-08-17T07:04:52.085Z,3.60
2018-08-17T07:05:57.623Z,5.00
2018-08-17T07:07:03.162Z,3.90
2018-08-17T07:08:08.709Z,4.00
2018-08-17T07:09:14.369Z,4.70
2018-08-17T07:10:19.795Z,3.90
2018-08-17T07:11:25.339Z,4.10
2018-08-17T07:12:30.883Z,5.00
2018-08-17T07:13:36.419Z,5.20
2018-08-17T07:14:41.968Z,4.40
2018-08-17T07:15:47.512Z,3.80
2018-08-17T07:16:53.058Z,3.80
2018-08-17T07:17:58.596Z,3.70
2018-08-17T07:19:04.134Z,3.80
2018-08-17T07:20:09.676Z,3.10
2018-08-17T07:21:15.225Z,3.50
2018-08-17T07:22:20.769Z,3.80
2018-08-17T07:23:26.307Z,3.50
2018-08-17T07:24:31.857Z,3.10
2018-08-17T07:25:37.393Z,3.50
2018-08-17T07:26:42.937Z,2.30
2018-08-17T07:27:48.577Z,2.40
2018-08-17T07:28:54.031Z,2.20
2018-08-17T07:29:59.567Z,2.40
2018-08-17T07:31:05.110Z,2.20
2018-08-17T07:32:10.649Z,2.40
2018-08-17T07:33:16.205Z,2.70
2018-08-17T07:34:21.746Z,2.20
2018-08-17T07:35:27.326Z,2.20
2018-08-17T07:36:32.840Z,2.30
2018-08-17T07:37:38.368Z,2.30
2018-08-17T07:38:43.919Z,2.00
2018-08-17T07:39:49.464Z,3.30
2018-08-17T07:40:54.999Z,6.00
2018-08-17T07:42:00.549Z,4.00
2018-08-17T07:43:06.088Z,2.40
2018-08-17T07:44:11.633Z,2.50
2018-08-17T07:45:17.178Z,1.90
2018-08-17T07:46:22.719Z,2.00
2018-08-17T07:47:28.265Z,2.20
2018-08-17T07:48:33.808Z,2.00
2018-08-17T07:49:39.347Z,2.00
2018-08-17T07:50:44.900Z,1.80
2018-08-17T07:51:50.433Z,2.00
2018-08-17T07:52:55.984Z,1.70
2018-08-17T07:54:01.527Z,1.90
2018-08-17T07:55:07.069Z,2.00
2018-08-17T07:56:12.611Z,2.20
2018-08-17T07:57:18.158Z,2.10
2018-08-17T07:58:23.695Z,1.70
2018-08-17T07:59:29.245Z,2.10
2018-08-17T08:00:34.784Z,1.80
2018-08-17T08:01:40.332Z,2.20
2018-08-17T08:02:45.877Z,2.10
2018-08-17T08:03:51.415Z,1.80
2018-08-17T08:04:56.961Z,1.80
2018-08-17T08:06:02.503Z,1.70
2018-08-17T08:07:08.051Z,1.50
2018-08-17T08:08:13.584Z,1.60
2018-08-17T08:09:19.135Z,1.50
2018-08-17T08:10:24.689Z,1.50
2018-08-17T08:11:30.219Z,1.70
2018-08-17T08:12:35.770Z,1.40
2018-08-17T08:13:41.369Z,1.50
2018-08-17T08:14:46.852Z,1.60
2018-08-17T08:15:52.397Z,1.50
2018-08-17T08:16:57.944Z,1.60
2018-08-17T08:18:03.489Z,1.80
2018-08-17T08:19:09.027Z,2.00
2018-08-17T08:20:14.631Z,2.10
2018-08-17T08:21:20.118Z,1.30
2018-08-17T08:22:25.666Z,1.70
2018-08-17T08:23:31.203Z,1.70
2018-08-17T08:24:36.753Z,1.70
2018-08-17T08:25:42.295Z,1.30
2018-08-17T08:26:47.843Z,1.70
2018-08-17T08:27:53.387Z,1.60
2018-08-17T08:28:58.930Z,1.90
2018-08-17T08:30:04.469Z,2.50
2018-08-17T08:31:10.019Z,1.80
2018-08-17T08:32:15.563Z,1.50
2018-08-17T08:33:21.103Z,1.60
2018-08-17T08:34:26.650Z,1.80
2018-08-17T08:35:32.189Z,1.60
2018-08-17T08:36:37.739Z,1.80
2018-08-17T08:37:43.278Z,1.70
2018-08-17T08:38:48.821Z,1.80
2018-08-17T08:39:54.390Z,2.10
2018-08-17T08:40:59.913Z,1.60
2018-08-17T08:42:05.454Z,1.90
2018-08-17T08:43:11.005Z,2.00
2018-08-17T08:44:16.547Z,2.80
2018-08-17T08:45:22.121Z,2.10
2018-08-17T08:46:27.631Z,2.10
2018-08-17T08:47:33.177Z,2.00
2018-08-17T08:48:38.730Z,2.50
2018-08-17T08:49:44.272Z,2.00
2018-08-17T08:50:49.812Z,1.80
2018-08-17T08:51:55.356Z,2.00
2018-08-17T08:53:00.902Z,2.30
2018-08-17T08:54:06.443Z,2.40
2018-08-17T08:55:11.995Z,1.80
2018-08-17T08:56:17.535Z,1.90
2018-08-17T08:57:23.084Z,2.30
2018-08-17T08:58:28.630Z,1.70
2018-08-17T08:59:34.171Z,2.00
2018-08-17T09:00:39.720Z,2.10
2018-08-17T09:01:45.339Z,1.80
2018-08-17T09:02:50.801Z,2.20
2018-08-17T09:03:56.345Z,2.10
2018-08-17T09:05:01.902Z,1.90
2018-08-17T09:06:07.438Z,1.70
2018-08-17T09:07:12.978Z,2.10
2018-08-17T09:08:18.595Z,2.10
2018-08-17T09:09:24.071Z,2.20
2018-08-17T09:10:29.620Z,2.60
2018-08-17T09:11:35.157Z,3.00
2018-08-17T09:12:40.709Z,2.70
2018-08-17T09:13:46.330Z,2.70
2018-08-17T09:14:51.799Z,2.50
2018-08-17T09:15:57.347Z,2.80
2018-08-17T09:17:02.883Z,2.80
2018-08-17T09:18:08.428Z,2.80
2018-08-17T09:19:13.970Z,3.50
2018-08-17T09:20:19.576Z,3.10
2018-08-17T09:21:25.065Z,3.50
2018-08-17T09:22:30.606Z,3.00
2018-08-17T09:23:36.152Z,3.20
2018-08-17T09:24:41.700Z,3.20
2018-08-17T09:25:47.241Z,2.90
2018-08-17T09:26:52.782Z,2.50
2018-08-17T09:27:58.333Z,2.30
2018-08-17T09:29:03.889Z,2.40
2018-08-17T09:30:09.437Z,2.10
2018-08-17T09:31:14.968Z,2.10
2018-08-17T09:32:20.510Z,1.90
2018-08-17T09:33:26.060Z,2.00
2018-08-17T09:34:31.601Z,2.10
2018-08-17T09:35:37.148Z,2.10
2018-08-17T09:36:42.691Z,1.80
2018-08-17T09:37:48.238Z,2.30
2018-08-17T09:38:53.780Z,2.40
2018-08-17T09:39:59.322Z,2.00
2018-08-17T09:41:04.878Z,2.70
2018-08-17T09:42:10.485Z,2.70
2018-08-17T09:43:15.974Z,2.80
2018-08-17T09:44:21.523Z,3.00
2018-08-17T09:45:27.051Z,3.10
2018-08-17T09:46:32.597Z,3.50
2018-08-17T09:47:38.147Z,2.90
2018-08-17T09:48:43.690Z,3.10
2018-08-17T09:49:49.229Z,3.30
2018-08-17T09:50:54.777Z,3.10
2018-08-17T09:52:00.326Z,2.90
2018-08-17T09:53:05.866Z,3.60
2018-08-17T09:54:11.418Z,3.50
2018-08-17T09:55:16.956Z,3.40
2018-08-17T09:56:22.510Z,3.50
2018-08-17T09:57:28.105Z,3.30
2018-08-17T09:58:33.600Z,3.50
2018-08-17T09:59:39.140Z,2.80
2018-08-17T10:00:44.687Z,3.10
2018-08-17T10:01:50.233Z,2.90
2018-08-17T10:02:55.778Z,2.90
2018-08-17T10:04:01.334Z,2.60
2018-08-17T10:05:06.879Z,2.80
2018-08-17T10:06:12.411Z,2.70
2018-08-17T10:07:17.962Z,2.80
2018-08-17T10:08:23.510Z,2.50
2018-08-17T10:09:29.053Z,3.20
2018-08-17T10:10:34.596Z,2.80
2018-08-17T10:11:40.146Z,2.50
2018-08-17T10:12:45.694Z,2.80
2018-08-17T10:13:51.229Z,2.50
2018-08-17T10:14:56.783Z,2.60
2018-08-17T10:16:02.330Z,2.90
2018-08-17T10:17:07.866Z,2.70
2018-08-17T10:18:13.413Z,2.80
2018-08-17T10:19:18.963Z,2.70
2018-08-17T10:20:24.508Z,2.60
2018-08-17T10:21:30.301Z,2.20
2018-08-17T10:22:35.600Z,3.00
2018-08-17T10:23:41.147Z,2.30
2018-08-17T10:24:46.689Z,2.20
2018-08-17T10:25:52.235Z,2.30
2018-08-17T10:26:57.777Z,2.20
2018-08-17T10:28:03.325Z,2.40
2018-08-17T10:29:08.867Z,2.20
2018-08-17T10:30:14.417Z,2.70
2018-08-17T10:31:19.958Z,3.70
2018-08-17T10:32:25.508Z,2.90
2018-08-17T10:33:31.054Z,2.70
2018-08-17T10:34:36.598Z,3.50
2018-08-17T10:35:42.148Z,3.10
2018-08-17T10:36:47.684Z,2.70
2018-08-17T10:37:53.235Z,2.60
2018-08-17T10:38:59.320Z,2.70
2018-08-17T10:40:04.328Z,3.40
2018-08-17T10:41:09.868Z,3.00
2018-08-17T10:42:15.413Z,2.70
2018-08-17T10:43:20.958Z,2.80
2018-08-17T10:44:26.503Z,2.50
2018-08-17T10:45:32.053Z,2.20
2018-08-17T10:46:37.593Z,2.50
2018-08-17T10:47:43.147Z,2.10
2018-08-17T10:48:48.810Z,1.90
2018-08-17T10:49:54.236Z,2.30
2018-08-17T10:50:59.777Z,2.30
2018-08-17T10:52:05.323Z,2.40
2018-08-17T10:53:10.870Z,2.50
2018-08-17T10:54:16.411Z,2.30
2018-08-17T10:55:21.989Z,2.40
2018-08-17T10:56:27.504Z,3.20
2018-08-17T10:57:33.141Z,2.80
2018-08-17T10:58:38.596Z,2.80
2018-08-17T10:59:44.140Z,2.30
2018-08-17T11:00:49.697Z,2.50
2018-08-17T11:01:55.237Z,2.40
2018-08-17T11:03:00.783Z,3.20
2018-08-17T11:04:06.331Z,2.20
2018-08-17T11:05:11.872Z,2.60
2018-08-17T11:06:17.418Z,2.30
2018-08-17T11:07:22.964Z,2.50
2018-08-17T11:08:28.515Z,2.40
2018-08-17T11:09:34.051Z,2.50
2018-08-17T11:10:39.605Z,2.70
2018-08-17T11:11:45.149Z,2.40
2018-08-17T11:12:50.701Z,2.10
2018-08-17T11:13:56.233Z,2.50
2018-08-17T11:15:01.785Z,2.80
2018-08-17T11:16:07.328Z,3.00
2018-08-17T11:17:12.878Z,3.00
2018-08-17T11:18:18.421Z,2.50
2018-08-17T11:19:23.967Z,2.60
2018-08-17T11:20:29.509Z,2.50
2018-08-17T11:21:35.052Z,2.40
2018-08-17T11:22:40.600Z,2.50
2018-08-17T11:23:46.147Z,2.50
2018-08-17T11:24:51.691Z,2.30
2018-08-17T11:25:57.239Z,2.30
2018-08-17T11:27:02.787Z,3.00
2018-08-17T11:28:08.336Z,2.40
2018-08-17T11:29:13.871Z,3.60
2018-08-17T11:30:19.419Z,2.60
2018-08-17T11:31:24.970Z,2.70
2018-08-17T11:32:30.508Z,2.60
2018-08-17T11:33:36.062Z,2.70
2018-08-17T11:34:41.607Z,2.60
2018-08-17T11:35:47.151Z,2.80
2018-08-17T11:36:52.695Z,2.30
2018-08-17T11:37:58.233Z,2.00
2018-08-17T11:39:03.786Z,2.00
2018-08-17T11:40:09.334Z,2.10
2018-08-17T11:41:14.879Z,2.20
2018-08-17T11:42:20.421Z,2.30
2018-08-17T11:43:25.967Z,2.30
2018-08-17T11:44:31.515Z,1.90
2018-08-17T11:45:37.057Z,2.60
2018-08-17T11:46:42.603Z,3.00
2018-08-17T11:47:48.151Z,2.50
2018-08-17T11:48:53.694Z,2.10
2018-08-17T11:49:59.243Z,2.60
2018-08-17T11:51:04.791Z,1.80
2018-08-17T11:52:10.325Z,1.90
2018-08-17T11:53:15.880Z,1.80
2018-08-17T11:54:21.420Z,2.10
2018-08-17T11:55:26.973Z,2.50
2018-08-17T11:56:32.516Z,2.80
2018-08-17T11:57:38.055Z,1.90
2018-08-17T11:58:43.606Z,2.40
2018-08-17T11:59:49.152Z,2.50
2018-08-17T12:00:54.690Z,2.00
2018-08-17T12:02:00.299Z,2.60
2018-08-17T12:03:05.782Z,2.20
2018-08-17T12:04:11.329Z,2.30
2018-08-17T12:05:16.879Z,2.40
2018-08-17T12:06:22.426Z,2.70
2018-08-17T12:07:27.969Z,2.60
2018-08-17T12:08:33.524Z,2.30
2018-08-17T12:09:39.065Z,2.40
2018-08-17T12:10:44.599Z,2.40
2018-08-17T12:11:50.157Z,2.00
2018-08-17T12:12:55.693Z,2.50
2018-08-17T12:14:01.239Z,2.60
2018-08-17T12:15:06.787Z,2.80
2018-08-17T12:16:12.327Z,2.30
2018-08-17T12:17:17.875Z,2.30
2018-08-17T12:18:23.416Z,2.30
2018-08-17T12:19:28.961Z,2.10
2018-08-17T12:20:34.506Z,2.50
2018-08-17T12:21:40.057Z,2.20
2018-08-17T12:22:45.598Z,1.80
2018-08-17T12:23:51.142Z,2.00
2018-08-17T12:24:56.705Z,2.20
2018-08-17T12:26:02.243Z,2.00
2018-08-17T12:27:07.784Z,2.10
2018-08-17T12:28:13.330Z,1.70
2018-08-17T12:29:18.879Z,1.80
2018-08-17T12:30:24.419Z,1.50
2018-08-17T12:31:29.967Z,1.90
2018-08-17T12:32:35.518Z,1.50
2018-08-17T12:33:41.055Z,1.70
2018-08-17T12:34:46.606Z,1.60
2018-08-17T12:35:52.148Z,1.50
2018-08-17T12:36:57.687Z,1.30
2018-08-17T12:38:03.232Z,1.50
2018-08-17T12:39:08.781Z,1.60
2018-08-17T12:40:14.402Z,1.50
2018-08-17T12:41:19.863Z,1.60
2018-08-17T12:42:25.414Z,1.50
2018-08-17T12:43:30.954Z,1.50
2018-08-17T12:44:36.509Z,1.30
2018-08-17T12:45:42.049Z,1.30
2018-08-17T12:46:47.590Z,1.30
2018-08-17T12:47:53.140Z,1.30
2018-08-17T12:48:58.679Z,1.40
2018-08-17T12:50:04.224Z,1.50
2018-08-17T12:51:09.775Z,1.40
2018-08-17T12:52:15.328Z,1.40
2018-08-17T12:53:20.863Z,1.50
2018-08-17T12:54:26.404Z,1.50
2018-08-17T12:55:31.963Z,1.60
2018-08-17T12:56:37.494Z,1.30
2018-08-17T12:57:43.054Z,1.40
2018-08-17T12:58:48.586Z,1.30
2018-08-17T12:59:54.125Z,1.30
2018-08-17T13:00:59.676Z,1.80
2018-08-17T13:02:05.214Z,1.90
2018-08-17T13:03:10.761Z,1.90
2018-08-17T13:04:16.307Z,1.30
2018-08-17T13:05:21.855Z,1.80
2018-08-17T13:06:27.397Z,1.70
2018-08-17T13:07:32.937Z,1.60
2018-08-17T13:08:38.499Z,1.40
2018-08-17T13:09:44.033Z,1.50
2018-08-17T13:10:49.646Z,1.80
2018-08-17T13:11:55.117Z,1.90
2018-08-17T13:13:00.657Z,2.10
2018-08-17T13:14:06.206Z,1.70
2018-08-17T13:15:11.753Z,1.40
2018-08-17T13:16:17.298Z,1.60
2018-08-17T13:17:22.920Z,2.00
2018-08-17T13:18:28.385Z,1.50
2018-08-17T13:19:33.930Z,1.50
2018-08-17T13:20:39.469Z,1.60
2018-08-17T13:21:45.023Z,1.50
2018-08-17T13:22:50.562Z,1.50
2018-08-17T13:23:56.109Z,1.60
2018-08-17T13:25:01.652Z,1.70
2018-08-17T13:26:07.194Z,1.70
2018-08-17T13:27:12.737Z,1.70
2018-08-17T13:28:18.281Z,1.60
2018-08-17T13:29:23.822Z,1.70
2018-08-17T13:30:29.371Z,1.90
2018-08-17T13:31:34.922Z,2.50
2018-08-17T13:32:40.453Z,3.00
2018-08-17T13:33:46.010Z,4.20
2018-08-17T13:34:51.544Z,4.70
2018-08-17T13:35:57.131Z,5.40
2018-08-17T13:37:02.635Z,5.30
2018-08-17T13:38:08.178Z,3.00
2018-08-17T13:39:13.719Z,1.60
2018-08-17T13:40:19.264Z,1.60
2018-08-17T13:41:24.813Z,1.60
2018-08-17T13:42:30.353Z,1.30
2018-08-17T13:43:35.899Z,1.20
2018-08-17T13:44:41.446Z,1.40
2018-08-17T13:45:46.988Z,1.60
2018-08-17T13:46:52.533Z,1.30
2018-08-17T13:47:58.083Z,1.30
2018-08-17T13:49:03.650Z,1.40
2018-08-17T13:50:09.171Z,1.40
2018-08-17T13:51:14.710Z,1.30
2018-08-17T13:52:20.255Z,1.30
2018-08-17T13:53:25.803Z,1.20
2018-08-17T13:54:31.337Z,1.20
2018-08-17T13:55:36.886Z,1.60
2018-08-17T13:56:42.423Z,1.40
2018-08-17T13:57:47.968Z,1.40
2018-08-17T13:58:53.520Z,1.10
2018-08-17T13:59:59.061Z,1.30
2018-08-17T14:01:04.602Z,1.20
2018-08-17T14:02:10.171Z,1.30
2018-08-17T14:03:15.693Z,1.30
2018-08-17T14:04:21.237Z,1.30
2018-08-17T14:05:26.785Z,1.70
2018-08-17T14:06:32.330Z,1.30
2018-08-17T14:07:37.870Z,1.10
2018-08-17T14:08:43.410Z,1.20
2018-08-17T14:09:48.954Z,1.20
2018-08-17T14:10:54.504Z,1.00
2018-08-17T14:12:00.043Z,1.30
2018-08-17T14:13:05.587Z,1.40
2018-08-17T14:14:11.132Z,1.50
2018-08-17T14:15:16.676Z,1.40
2018-08-17T14:16:22.223Z,1.30
2018-08-17T14:17:27.765Z,1.20
2018-08-17T14:18:33.311Z,1.20
2018-08-17T14:19:38.851Z,1.20
2018-08-17T14:20:44.399Z,1.20
2018-08-17T14:21:49.946Z,1.10